createdAt,value
2022-12-27T00:00:36.332Z,0.73
2022-12-27T00:03:04.531Z,0.73
2022-12-27T00:05:31.346Z,0.68
2022-12-27T00:08:00.394Z,1.13
2022-12-27T00:10:27.296Z,1.05
2022-12-27T00:12:54.162Z,0.70
2022-12-27T00:15:20.908Z,0.85
2022-12-27T00:17:47.666Z,1.08
2022-12-27T00:20:14.321Z,0.85
2022-12-27T00:22:43.417Z,1.00
2022-12-27T00:25:10.833Z,0.73
2022-12-27T00:27:38.069Z,0.88
2022-12-27T00:30:05.744Z,0.73
2022-12-27T00:32:32.444Z,0.85
2022-12-27T00:34:59.145Z,1.15
2022-12-27T00:37:28.033Z,1.23
2022-12-27T00:39:57.063Z,0.88
2022-12-27T00:42:23.705Z,1.20
2022-12-27T00:44:50.387Z,1.23
2022-12-27T00:47:17.031Z,1.08
2022-12-27T00:49:43.701Z,0.90
2022-12-27T00:52:10.356Z,0.98
2022-12-27T00:54:39.271Z,1.80
2022-12-27T00:57:08.647Z,0.95
2022-12-27T00:59:35.296Z,1.10
2022-12-27T01:02:02.081Z,0.85
2022-12-27T01:04:29.041Z,1.05
2022-12-27T01:06:58.248Z,1.15
2022-12-27T01:09:24.879Z,1.15
2022-12-27T01:11:51.507Z,1.30
2022-12-27T01:14:18.160Z,0.77
2022-12-27T01:16:45.187Z,1.02
2022-12-27T01:19:12.217Z,1.42
2022-12-27T01:21:41.284Z,1.17
2022-12-27T01:24:10.532Z,1.35
2022-12-27T01:26:37.188Z,1.27
2022-12-27T01:29:06.146Z,1.25
2022-12-27T01:31:32.907Z,1.13
2022-12-27T01:34:03.252Z,1.02
2022-12-27T01:36:31.546Z,1.00
2022-12-27T01:38:59.330Z,1.40
2022-12-27T01:41:50.849Z,1.00
2022-12-27T01:44:51.389Z,1.33
2022-12-27T01:47:39.212Z,1.15
2022-12-27T01:50:29.076Z,1.27
2022-12-27T01:53:07.589Z,1.00
2022-12-27T01:55:37.214Z,1.02
2022-12-27T01:58:12.646Z,1.67
2022-12-27T02:00:44.054Z,1.70
2022-12-27T02:03:14.717Z,1.40
2022-12-27T02:05:42.347Z,1.00
2022-12-27T02:08:18.507Z,1.98
2022-12-27T02:10:46.482Z,2.28
2022-12-27T02:13:14.917Z,1.13
2022-12-27T02:15:41.756Z,1.05
2022-12-27T02:18:08.610Z,1.27
2022-12-27T02:20:57.972Z,1.02
2022-12-27T02:24:07.709Z,1.23
2022-12-27T02:26:55.139Z,1.13
2022-12-27T02:29:37.735Z,1.23
2022-12-27T02:32:15.228Z,1.27
2022-12-27T02:35:14.463Z,1.13
2022-12-27T02:38:03.853Z,0.90
2022-12-27T02:40:51.171Z,1.10
2022-12-27T02:43:36.968Z,1.00
2022-12-27T02:46:45.930Z,1.13
2022-12-27T02:49:50.848Z,1.23
2022-12-27T02:52:44.380Z,0.93
2022-12-27T02:55:25.790Z,1.00
2022-12-27T02:58:40.707Z,1.60
2022-12-27T03:02:06.855Z,1.08
2022-12-27T03:04:39.494Z,0.80
2022-12-27T03:07:32.276Z,1.10
2022-12-27T03:10:37.013Z,1.95
2022-12-27T03:16:05.863Z,1.20
2022-12-27T03:19:11.193Z,1.30
2022-12-27T03:22:01.559Z,1.40
2022-12-27T03:24:50.378Z,1.30
2022-12-27T03:27:36.893Z,1.13
2022-12-27T03:30:26.904Z,0.95
2022-12-27T03:33:15.169Z,1.48
2022-12-27T03:36:13.263Z,1.30
2022-12-27T03:38:47.643Z,1.20
2022-12-27T03:42:06.268Z,1.20
2022-12-27T03:44:33.251Z,1.20
2022-12-27T03:47:05.779Z,1.20
2022-12-27T03:49:32.407Z,1.23
2022-12-27T03:52:14.686Z,1.27
2022-12-27T03:54:44.180Z,0.93
2022-12-27T03:57:14.817Z,3.05
2022-12-27T03:59:41.509Z,1.13
2022-12-27T04:02:11.629Z,1.10
2022-12-27T04:04:38.434Z,1.30
2022-12-27T04:07:06.169Z,1.52
2022-12-27T04:09:54.011Z,1.38
2022-12-27T04:12:41.946Z,1.15
2022-12-27T04:15:27.449Z,1.20
2022-12-27T04:18:12.869Z,1.08
2022-12-27T04:20:58.503Z,1.42
2022-12-27T04:23:44.159Z,1.20
2022-12-27T04:26:29.607Z,1.35
2022-12-27T04:29:15.030Z,1.17
2022-12-27T04:32:00.393Z,1.35
2022-12-27T04:34:42.828Z,1.40
2022-12-27T04:37:15.789Z,1.50
2022-12-27T04:40:03.334Z,1.47
2022-12-27T04:42:48.808Z,1.27
2022-12-27T04:45:36.832Z,0.93
2022-12-27T04:48:22.324Z,1.50
2022-12-27T04:51:07.783Z,1.50
2022-12-27T04:53:53.212Z,1.10
2022-12-27T04:56:19.870Z,1.08
2022-12-27T04:59:05.026Z,1.30
2022-12-27T05:01:50.865Z,1.33
2022-12-27T05:04:19.999Z,1.27
2022-12-27T05:06:49.272Z,1.17
2022-12-27T05:09:34.474Z,1.52
2022-12-27T05:12:22.271Z,1.50
2022-12-27T05:14:48.933Z,1.92
2022-12-27T05:17:15.785Z,1.92
2022-12-27T05:19:42.423Z,2.78
2022-12-27T05:22:27.489Z,3.83
2022-12-27T05:25:12.714Z,2.45
2022-12-27T05:27:43.834Z,1.73
2022-12-27T05:30:12.991Z,1.80
2022-12-27T05:32:39.642Z,1.98
2022-12-27T05:35:06.571Z,2.00
2022-12-27T05:37:33.347Z,1.50
2022-12-27T05:39:59.967Z,1.67
2022-12-27T05:42:26.591Z,1.50
2022-12-27T05:44:53.291Z,1.90
2022-12-27T05:47:19.924Z,1.35
2022-12-27T05:49:46.713Z,2.60
2022-12-27T05:52:13.443Z,1.20
2022-12-27T05:54:40.115Z,1.80
2022-12-27T05:57:09.059Z,1.70
2022-12-27T05:59:37.919Z,1.95
2022-12-27T06:02:04.735Z,2.00
2022-12-27T06:04:33.777Z,1.73
2022-12-27T06:07:02.998Z,2.30
2022-12-27T06:09:29.669Z,1.73
2022-12-27T06:11:56.288Z,1.77
2022-12-27T06:14:25.523Z,2.17
2022-12-27T06:16:52.208Z,2.28
2022-12-27T06:19:21.277Z,1.90
2022-12-27T06:21:47.919Z,2.10
2022-12-27T06:24:17.174Z,1.90
2022-12-27T06:26:43.807Z,2.65
2022-12-27T06:29:13.115Z,2.22
2022-12-27T06:31:40.358Z,1.80
2022-12-27T06:34:07.118Z,1.80
2022-12-27T06:36:36.635Z,1.80
2022-12-27T06:39:03.543Z,1.90
2022-12-27T06:41:30.297Z,2.15
2022-12-27T06:43:58.078Z,1.83
2022-12-27T06:46:25.079Z,1.92
2022-12-27T06:48:54.376Z,1.90
2022-12-27T06:51:23.840Z,2.55
2022-12-27T06:53:53.031Z,2.08
2022-12-27T06:56:22.089Z,2.00
2022-12-27T06:58:50.876Z,2.13
2022-12-27T07:01:28.234Z,2.45
2022-12-27T07:04:00.708Z,2.28
2022-12-27T07:06:32.051Z,2.30
2022-12-27T07:09:00.711Z,3.22
2022-12-27T07:11:33.158Z,2.30
2022-12-27T07:13:59.828Z,2.00
2022-12-27T07:16:30.335Z,1.90
2022-12-27T07:18:58.947Z,2.42
2022-12-27T07:21:29.850Z,2.65
2022-12-27T07:23:57.480Z,2.90
2022-12-27T07:26:28.533Z,2.00
2022-12-27T07:29:00.251Z,2.10
2022-12-27T07:31:31.212Z,2.50
2022-12-27T07:34:02.577Z,2.20
2022-12-27T07:36:34.473Z,2.13
2022-12-27T07:39:01.379Z,2.33
2022-12-27T07:41:28.240Z,2.58
2022-12-27T07:43:55.064Z,4.03
2022-12-27T07:46:28.049Z,4.80
2022-12-27T07:48:56.102Z,5.35
2022-12-27T07:51:23.565Z,3.60
2022-12-27T07:53:51.407Z,2.33
2022-12-27T07:56:28.921Z,1.88
2022-12-27T07:58:58.208Z,2.00
2022-12-27T08:01:26.871Z,1.98
2022-12-27T08:03:56.897Z,2.15
2022-12-27T08:06:32.070Z,2.42
2022-12-27T08:09:03.038Z,2.15
2022-12-27T08:11:30.946Z,1.88
2022-12-27T08:13:57.805Z,2.38
2022-12-27T08:16:26.393Z,2.65
2022-12-27T08:18:56.001Z,1.95
2022-12-27T08:21:23.675Z,2.22
2022-12-27T08:23:50.378Z,2.30
2022-12-27T08:26:19.326Z,2.42
2022-12-27T08:28:48.555Z,2.80
2022-12-27T08:31:15.290Z,2.55
2022-12-27T08:33:42.304Z,2.28
2022-12-27T08:36:29.166Z,3.00
2022-12-27T08:39:00.581Z,3.00
2022-12-27T08:41:27.343Z,2.75
2022-12-27T08:43:56.488Z,2.55
2022-12-27T08:46:25.406Z,1.95
2022-12-27T08:48:54.312Z,2.65
2022-12-27T08:51:32.633Z,2.50
2022-12-27T08:54:04.899Z,2.70
2022-12-27T08:56:33.772Z,1.70
2022-12-27T08:59:02.729Z,1.90
2022-12-27T09:01:29.611Z,2.28
2022-12-27T09:03:56.478Z,2.20
2022-12-27T09:06:24.660Z,2.85
2022-12-27T09:08:52.356Z,2.67
2022-12-27T09:11:24.843Z,2.10
2022-12-27T09:13:51.941Z,2.00
2022-12-27T09:16:22.561Z,2.13
2022-12-27T09:18:51.641Z,2.45
2022-12-27T09:21:23.427Z,2.80
2022-12-27T09:23:53.625Z,2.20
2022-12-27T09:26:23.048Z,1.95
2022-12-27T09:28:50.738Z,2.60
2022-12-27T09:31:19.244Z,2.38
2022-12-27T09:33:48.393Z,2.63
2022-12-27T09:36:23.265Z,2.17
2022-12-27T09:38:52.602Z,2.30
2022-12-27T09:41:40.930Z,2.25
2022-12-27T09:44:17.190Z,2.13
2022-12-27T09:46:58.508Z,2.40
2022-12-27T09:49:53.352Z,1.98
2022-12-27T09:52:37.257Z,1.92
2022-12-27T09:55:20.688Z,1.90
2022-12-27T09:57:48.293Z,2.30
2022-12-27T10:00:34.684Z,2.10
2022-12-27T10:03:09.417Z,2.40
2022-12-27T10:05:40.604Z,1.67
2022-12-27T10:08:28.830Z,2.30
2022-12-27T10:11:38.883Z,2.10
2022-12-27T10:14:25.360Z,2.30
2022-12-27T10:17:16.437Z,1.83
2022-12-27T10:20:01.403Z,1.90
2022-12-27T10:22:34.834Z,2.00
2022-12-27T10:25:06.116Z,1.95
2022-12-27T10:27:32.841Z,3.30
2022-12-27T10:30:00.346Z,2.03
2022-12-27T10:32:27.191Z,1.55
2022-12-27T10:35:01.341Z,1.65
2022-12-27T10:37:28.947Z,1.65
2022-12-27T10:40:00.924Z,2.00
2022-12-27T10:42:38.324Z,2.17
2022-12-27T10:45:39.193Z,1.98
2022-12-27T10:48:28.905Z,2.20
2022-12-27T10:51:06.158Z,1.95
2022-12-27T10:53:59.017Z,2.83
2022-12-27T10:56:29.904Z,2.05
2022-12-27T10:59:24.381Z,1.90
2022-12-27T11:04:28.995Z,2.22
2022-12-27T11:07:07.409Z,2.13
2022-12-27T11:09:35.687Z,2.20
2022-12-27T11:12:14.129Z,2.33
2022-12-27T11:14:53.616Z,2.20
2022-12-27T11:17:26.277Z,2.60
2022-12-27T11:19:53.404Z,2.22
2022-12-27T11:22:20.356Z,2.42
2022-12-27T11:24:51.954Z,2.28
2022-12-27T11:27:25.618Z,2.28
2022-12-27T11:29:57.974Z,2.53
2022-12-27T11:32:25.055Z,2.80
2022-12-27T11:34:56.644Z,3.03
2022-12-27T11:37:26.444Z,2.33
2022-12-27T11:40:10.383Z,2.10
2022-12-27T11:42:58.364Z,2.83
2022-12-27T11:45:49.265Z,3.95
2022-12-27T11:48:35.183Z,2.42
2022-12-27T11:51:01.769Z,2.60
2022-12-27T11:53:55.802Z,2.65
2022-12-27T11:56:32.205Z,2.40
2022-12-27T11:59:34.037Z,2.30
2022-12-27T12:02:32.991Z,2.15
2022-12-27T12:05:29.864Z,2.47
2022-12-27T12:08:48.672Z,2.13
2022-12-27T12:11:42.817Z,2.28
2022-12-27T12:14:21.475Z,2.30
2022-12-27T12:16:59.542Z,2.53
2022-12-27T12:20:00.060Z,1.92
2022-12-27T12:23:00.725Z,2.00
2022-12-27T12:25:55.667Z,2.30
2022-12-27T12:28:59.087Z,2.83
2022-12-27T12:31:57.361Z,2.17
2022-12-27T12:35:01.836Z,2.08
2022-12-27T12:38:03.533Z,1.80
2022-12-27T12:40:45.818Z,2.10
2022-12-27T12:43:52.577Z,2.40
2022-12-27T12:46:32.215Z,2.50
2022-12-27T12:49:14.030Z,2.17
2022-12-27T12:51:54.789Z,2.47
2022-12-27T12:54:39.240Z,2.28
2022-12-27T12:57:30.855Z,2.10
2022-12-27T13:00:12.740Z,1.90
2022-12-27T13:02:45.491Z,1.88
2022-12-27T13:05:21.110Z,2.30
2022-12-27T13:08:14.964Z,2.28
2022-12-27T13:11:11.836Z,2.63
2022-12-27T13:14:14.208Z,2.67
2022-12-27T13:17:13.919Z,2.20
2022-12-27T13:20:23.436Z,1.92
2022-12-27T13:23:05.091Z,2.05
2022-12-27T13:25:45.748Z,1.92
2022-12-27T13:28:27.466Z,1.52
2022-12-27T13:31:13.055Z,2.05
2022-12-27T13:34:14.713Z,1.77
2022-12-27T13:37:15.280Z,1.75
2022-12-27T13:39:49.455Z,1.65
2022-12-27T13:42:25.206Z,1.60
2022-12-27T13:45:33.876Z,1.80
2022-12-27T13:48:27.955Z,2.40
2022-12-27T13:51:07.555Z,1.98
2022-12-27T13:53:52.234Z,2.40
2022-12-27T13:59:45.726Z,2.67
2022-12-27T14:02:37.603Z,2.53
2022-12-27T14:05:44.190Z,2.38
2022-12-27T14:08:38.385Z,2.60
2022-12-27T14:11:32.938Z,2.42
2022-12-27T14:14:01.081Z,2.20
2022-12-27T14:16:42.160Z,2.53
2022-12-27T14:19:33.167Z,2.60
2022-12-27T14:22:18.352Z,2.60
2022-12-27T14:25:05.474Z,2.72
2022-12-27T14:28:00.633Z,2.15
2022-12-27T14:30:57.543Z,2.55
2022-12-27T14:33:58.501Z,2.45
2022-12-27T14:36:59.932Z,2.30
2022-12-27T14:40:22.427Z,2.50
2022-12-27T14:43:22.964Z,2.65
2022-12-27T14:46:23.717Z,2.45
2022-12-27T14:49:12.306Z,2.95
2022-12-27T14:52:10.493Z,2.70
2022-12-27T14:54:57.492Z,2.75
2022-12-27T14:57:34.031Z,2.75
2022-12-27T15:00:00.916Z,3.78
2022-12-27T15:03:16.644Z,3.08
2022-12-27T15:06:06.187Z,4.22
2022-12-27T15:09:02.491Z,3.30
2022-12-27T15:11:44.475Z,2.85
2022-12-27T15:14:32.682Z,3.28
2022-12-27T15:17:41.107Z,2.63
2022-12-27T15:20:32.005Z,3.17
2022-12-27T15:23:07.208Z,3.50
2022-12-27T15:25:57.297Z,3.00
2022-12-27T15:28:45.068Z,2.60
2022-12-27T15:31:15.881Z,4.55
2022-12-27T15:33:52.296Z,3.42
2022-12-27T15:36:46.261Z,3.25
2022-12-27T15:39:34.838Z,2.50
2022-12-27T15:42:23.287Z,3.13
2022-12-27T15:45:11.120Z,3.83
2022-12-27T15:47:50.906Z,3.28
2022-12-27T15:50:30.500Z,3.05
2022-12-27T15:53:12.566Z,3.05
2022-12-27T15:56:00.356Z,3.30
2022-12-27T15:58:27.362Z,3.00
2022-12-27T16:01:25.771Z,2.90
2022-12-27T16:03:54.672Z,2.95
2022-12-27T16:06:36.639Z,3.10
2022-12-27T16:09:30.485Z,3.50
2022-12-27T16:12:15.149Z,3.33
2022-12-27T16:14:43.485Z,3.20
2022-12-27T16:17:30.941Z,4.05
2022-12-27T16:20:14.175Z,4.03
2022-12-27T16:22:49.471Z,5.20
2022-12-27T16:25:30.920Z,3.58
2022-12-27T16:28:25.061Z,3.28
2022-12-27T16:30:54.581Z,3.78
2022-12-27T16:33:27.274Z,3.80
2022-12-27T16:36:20.635Z,4.07
2022-12-27T16:39:19.374Z,4.38
2022-12-27T16:41:57.556Z,3.95
2022-12-27T16:44:24.179Z,4.13
2022-12-27T16:46:56.945Z,5.80
2022-12-27T16:49:38.799Z,5.20
2022-12-27T16:52:17.504Z,4.32
2022-12-27T16:55:21.158Z,4.43
2022-12-27T16:57:49.180Z,4.90
2022-12-27T17:00:41.007Z,5.15
2022-12-27T17:03:29.963Z,5.28
2022-12-27T17:06:30.546Z,5.78
2022-12-27T17:09:06.472Z,5.97
2022-12-27T17:11:35.160Z,5.63
2022-12-27T17:14:15.693Z,5.53
2022-12-27T17:16:56.046Z,9.55
2022-12-27T17:19:54.519Z,7.07
2022-12-27T17:22:22.191Z,5.47
2022-12-27T17:24:56.913Z,5.63
2022-12-27T17:27:38.445Z,5.95
2022-12-27T17:30:22.231Z,6.97
2022-12-27T17:33:36.883Z,6.80
2022-12-27T17:36:06.558Z,6.82
2022-12-27T17:38:51.048Z,7.00
2022-12-27T17:42:07.724Z,7.95
2022-12-27T17:44:59.325Z,10.30
2022-12-27T17:47:33.608Z,10.68
2022-12-27T17:50:06.013Z,10.85
2022-12-27T17:52:51.428Z,11.43
2022-12-27T17:55:41.990Z,13.18
2022-12-27T17:58:12.220Z,11.35
2022-12-27T18:01:04.707Z,13.77
2022-12-27T18:03:39.407Z,11.48
2022-12-27T18:06:06.399Z,10.90
2022-12-27T18:08:36.981Z,9.77
2022-12-27T18:11:06.392Z,7.97
2022-12-27T18:13:36.978Z,7.88
2022-12-27T18:16:15.704Z,8.77
2022-12-27T18:18:47.107Z,11.90
2022-12-27T18:21:22.616Z,10.98
2022-12-27T18:23:53.588Z,9.57
2022-12-27T18:26:41.907Z,8.75
2022-12-27T18:29:11.563Z,7.90
2022-12-27T18:31:51.189Z,7.70
2022-12-27T18:34:31.000Z,8.65
2022-12-27T18:37:18.397Z,8.40
2022-12-27T18:40:23.719Z,7.18
2022-12-27T18:42:53.016Z,9.30
2022-12-27T18:45:29.064Z,9.77
2022-12-27T18:48:01.012Z,10.25
2022-12-27T18:50:33.665Z,10.95
2022-12-27T18:53:20.870Z,10.77
2022-12-27T18:56:17.600Z,10.57
2022-12-27T18:59:01.348Z,13.93
2022-12-27T19:01:40.620Z,12.65
2022-12-27T19:04:19.401Z,12.82
2022-12-27T19:07:11.861Z,17.58
2022-12-27T19:09:41.728Z,16.60
2022-12-27T19:12:37.184Z,21.10
2022-12-27T19:15:16.466Z,22.60
2022-12-27T19:17:48.408Z,20.05
2022-12-27T19:20:22.795Z,19.05
2022-12-27T19:22:53.195Z,13.13
2022-12-27T19:25:23.765Z,13.38
2022-12-27T19:28:19.504Z,13.15
2022-12-27T19:30:51.480Z,12.93
2022-12-27T19:33:34.142Z,14.73
2022-12-27T19:36:02.674Z,18.75
2022-12-27T19:38:33.306Z,15.48
2022-12-27T19:41:03.955Z,14.63
2022-12-27T19:43:36.977Z,15.32
2022-12-27T19:46:03.825Z,12.48
2022-12-27T19:48:30.564Z,16.48
2022-12-27T19:50:58.873Z,13.77
2022-12-27T19:53:38.633Z,12.32
2022-12-27T19:56:08.080Z,13.88
2022-12-27T19:58:35.020Z,15.10
2022-12-27T20:01:02.120Z,16.15
2022-12-27T20:03:31.606Z,15.95
2022-12-27T20:06:12.778Z,16.15
2022-12-27T20:08:49.154Z,16.00
2022-12-27T20:11:21.968Z,12.05
2022-12-27T20:13:49.184Z,10.23
2022-12-27T20:16:17.925Z,7.82
2022-12-27T20:18:48.017Z,7.30
2022-12-27T20:21:17.103Z,7.53
2022-12-27T20:23:44.148Z,7.40
2022-12-27T20:26:12.186Z,8.02
2022-12-27T20:28:41.405Z,8.27
2022-12-27T20:31:10.145Z,7.60
2022-12-27T20:33:37.032Z,8.70
2022-12-27T20:36:04.598Z,8.23
2022-12-27T20:38:31.445Z,8.02
2022-12-27T20:41:09.948Z,8.65
2022-12-27T20:43:39.756Z,7.65
2022-12-27T20:46:12.085Z,7.15
2022-12-27T20:48:40.368Z,8.48
2022-12-27T20:51:13.998Z,8.00
2022-12-27T20:53:40.716Z,8.32
2022-12-27T20:56:08.897Z,8.18
2022-12-27T20:58:35.757Z,7.47
2022-12-27T21:01:07.548Z,7.68
2022-12-27T21:03:37.541Z,7.55
2022-12-27T21:06:16.265Z,7.03
2022-12-27T21:08:49.194Z,7.80
2022-12-27T21:11:31.057Z,7.90
2022-12-27T21:13:58.118Z,8.60
2022-12-27T21:16:30.075Z,7.40
2022-12-27T21:19:02.824Z,8.13
2022-12-27T21:21:32.230Z,8.13
2022-12-27T21:23:59.465Z,8.10
2022-12-27T21:26:29.309Z,8.98
2022-12-27T21:28:56.976Z,8.10
2022-12-27T21:31:23.888Z,8.40
2022-12-27T21:33:53.374Z,8.15
2022-12-27T21:36:28.480Z,7.82
2022-12-27T21:38:55.633Z,7.90
2022-12-27T21:41:25.195Z,8.23
2022-12-27T21:43:52.625Z,8.85
2022-12-27T21:46:25.608Z,8.02
2022-12-27T21:48:57.657Z,8.55
2022-12-27T21:51:25.972Z,9.55
2022-12-27T21:53:53.228Z,8.68
2022-12-27T21:56:20.243Z,9.35
2022-12-27T21:58:47.585Z,8.88
2022-12-27T22:01:18.988Z,9.13
2022-12-27T22:03:47.944Z,8.65
2022-12-27T22:06:22.302Z,9.85
2022-12-27T22:08:54.268Z,9.30
2022-12-27T22:11:23.517Z,9.82
2022-12-27T22:13:50.699Z,9.95
2022-12-27T22:16:23.037Z,10.18
2022-12-27T22:18:52.545Z,10.32
2022-12-27T22:21:22.316Z,9.85
2022-12-27T22:23:51.416Z,9.90
2022-12-27T22:26:23.018Z,9.52
2022-12-27T22:28:50.114Z,9.80
2022-12-27T22:31:20.125Z,9.45
2022-12-27T22:33:47.658Z,7.90
2022-12-27T22:36:20.191Z,9.02
2022-12-27T22:38:50.604Z,8.23
2022-12-27T22:41:28.872Z,8.70
2022-12-27T22:44:15.837Z,7.93
2022-12-27T22:47:25.165Z,8.43
2022-12-27T22:49:32.143Z,7.78
2022-12-27T22:52:01.327Z,6.75
2022-12-27T22:55:04.000Z,7.97
2022-12-27T22:57:17.055Z,7.15
2022-12-27T22:59:43.874Z,7.07
2022-12-27T23:02:10.578Z,7.97
2022-12-27T23:04:39.621Z,6.53
2022-12-27T23:07:06.459Z,6.72
2022-12-27T23:09:40.963Z,7.10
2022-12-27T23:12:10.088Z,6.90
2022-12-27T23:14:36.785Z,7.30
2022-12-27T23:17:05.601Z,7.15
2022-12-27T23:19:34.771Z,7.80
2022-12-27T23:22:01.487Z,7.15
2022-12-27T23:24:30.710Z,7.22
2022-12-27T23:26:57.356Z,7.68
2022-12-27T23:29:24.198Z,6.72
2022-12-27T23:31:54.831Z,7.35
2022-12-27T23:34:27.800Z,7.38
2022-12-27T23:36:55.320Z,5.47
2022-12-27T23:39:22.053Z,7.35
2022-12-27T23:41:48.687Z,6.65
2022-12-27T23:44:16.763Z,7.40
2022-12-27T23:46:48.721Z,6.20
2022-12-27T23:49:15.983Z,7.95
2022-12-27T23:51:43.052Z,6.57
2022-12-27T23:54:09.741Z,6.85
2022-12-27T23:56:38.745Z,5.97
2022-12-27T23:59:07.313Z,7.53
